sensor_id;sensor_type;location;lat;lon;timestamp;P1;durP1;ratioP1;P2;durP2;ratioP2
40907;SDS011;51055;59.436;24.778;2023-03-14T16:01:32;12.65;;;7.40;;
40907;SDS011;51055;59.436;24.778;2023-03-14T16:04:00;17.10;;;8.23;;
40907;SDS011;51055;59.436;24.778;2023-03-14T16:06:29;16.48;;;8.30;;
40907;SDS011;51055;59.436;24.778;2023-03-14T16:08:58;14.82;;;8.63;;
40907;SDS011;51055;59.436;24.778;2023-03-14T16:11:26;14.25;;;7.68;;
40907;SDS011;51055;59.436;24.778;2023-03-14T16:13:54;18.88;;;7.78;;
40907;SDS011;51055;59.436;24.778;2023-03-14T16:16:22;12.35;;;7.25;;
40907;SDS011;51055;59.436;24.778;2023-03-14T16:18:49;19.73;;;8.32;;
40907;SDS011;51055;59.436;24.778;2023-03-14T16:21:18;13.60;;;7.63;;
40907;SDS011;51055;59.436;24.778;2023-03-14T16:23:47;12.50;;;8.35;;
40907;SDS011;51055;59.436;24.778;2023-03-14T16:26:17;10.33;;;6.23;;
40907;SDS011;51055;59.436;24.778;2023-03-14T16:28:46;16.75;;;9.15;;
40907;SDS011;51055;59.436;24.778;2023-03-14T16:31:18;14.85;;;8.63;;
40907;SDS011;51055;59.436;24.778;2023-03-14T16:33:48;11.23;;;7.78;;
40907;SDS011;51055;59.436;24.778;2023-03-14T16:36:16;13.55;;;8.20;;
40907;SDS011;51055;59.436;24.778;2023-03-14T16:38:44;9.55;;;5.78;;
40907;SDS011;51055;59.436;24.778;2023-03-14T16:41:14;17.13;;;9.40;;
40907;SDS011;51055;59.436;24.778;2023-03-14T16:43:43;16.02;;;7.93;;
40907;SDS011;51055;59.436;24.778;2023-03-14T16:46:14;14.80;;;8.57;;
40907;SDS011;51055;59.436;24.778;2023-03-14T16:48:51;15.48;;;8.27;;
40907;SDS011;51055;59.436;24.778;2023-03-14T16:51:19;14.32;;;8.40;;
40907;SDS011;51055;59.436;24.778;2023-03-14T16:53:48;12.93;;;8.25;;
40907;SDS011;51055;59.436;24.778;2023-03-14T16:56:16;12.37;;;6.57;;
40907;SDS011;51055;59.436;24.778;2023-03-14T16:58:45;11.07;;;7.75;;
40907;SDS011;51055;59.436;24.778;2023-03-14T17:01:13;12.98;;;8.50;;
40907;SDS011;51055;59.436;24.778;2023-03-14T17:03:45;13.15;;;8.77;;
40907;SDS011;51055;59.436;24.778;2023-03-14T17:06:16;12.75;;;9.07;;
40907;SDS011;51055;59.436;24.778;2023-03-14T17:08:46;13.45;;;8.90;;
40907;SDS011;51055;59.436;24.778;2023-03-14T17:11:14;10.90;;;7.40;;
40907;SDS011;51055;59.436;24.778;2023-03-14T17:13:42;11.98;;;7.35;;
40907;SDS011;51055;59.436;24.778;2023-03-14T17:16:10;13.90;;;9.82;;
40907;SDS011;51055;59.436;24.778;2023-03-14T17:18:38;16.80;;;10.63;;
40907;SDS011;51055;59.436;24.778;2023-03-14T17:21:06;19.60;;;10.50;;
40907;SDS011;51055;59.436;24.778;2023-03-14T17:23:34;16.15;;;11.30;;
40907;SDS011;51055;59.436;24.778;2023-03-14T17:26:02;15.32;;;11.20;;
40907;SDS011;51055;59.436;24.778;2023-03-14T17:28:30;16.27;;;11.70;;
40907;SDS011;51055;59.436;24.778;2023-03-14T17:33:29;15.30;;;11.27;;
40907;SDS011;51055;59.436;24.778;2023-03-14T17:35:57;15.40;;;11.70;;
40907;SDS011;51055;59.436;24.778;2023-03-14T17:38:25;16.98;;;11.88;;
40907;SDS011;51055;59.436;24.778;2023-03-14T17:40:53;17.90;;;12.70;;
40907;SDS011;51055;59.436;24.778;2023-03-14T17:43:21;19.00;;;13.45;;
40907;SDS011;51055;59.436;24.778;2023-03-14T17:46:00;19.92;;;12.65;;
40907;SDS011;51055;59.436;24.778;2023-03-14T17:48:29;15.05;;;12.50;;
40907;SDS011;51055;59.436;24.778;2023-03-14T17:50:58;17.17;;;13.25;;
40907;SDS011;51055;59.436;24.778;2023-03-14T17:53:28;19.08;;;13.65;;
40907;SDS011;51055;59.436;24.778;2023-03-14T17:55:57;20.90;;;14.07;;
40907;SDS011;51055;59.436;24.778;2023-03-14T17:58:25;19.50;;;14.32;;
40907;SDS011;51055;59.436;24.778;2023-03-14T18:00:56;19.83;;;15.35;;
40907;SDS011;51055;59.436;24.778;2023-03-14T18:03:24;22.25;;;15.63;;
40907;SDS011;51055;59.436;24.778;2023-03-14T18:05:52;19.60;;;15.60;;
40907;SDS011;51055;59.436;24.778;2023-03-14T18:08:20;18.35;;;12.63;;
40907;SDS011;51055;59.436;24.778;2023-03-14T18:10:52;22.50;;;16.27;;
40907;SDS011;51055;59.436;24.778;2023-03-14T18:13:20;19.35;;;16.55;;
40907;SDS011;51055;59.436;24.778;2023-03-14T18:15:48;22.70;;;16.53;;
40907;SDS011;51055;59.436;24.778;2023-03-14T18:18:19;22.85;;;16.05;;
40907;SDS011;51055;59.436;24.778;2023-03-14T18:20:48;22.05;;;15.82;;
40907;SDS011;51055;59.436;24.778;2023-03-14T18:23:20;22.05;;;16.67;;
40907;SDS011;51055;59.436;24.778;2023-03-14T18:28:18;17.83;;;13.20;;
40907;SDS011;51055;59.436;24.778;2023-03-14T18:30:47;22.55;;;17.75;;
40907;SDS011;51055;59.436;24.778;2023-03-14T18:33:20;24.25;;;16.85;;
40907;SDS011;51055;59.436;24.778;2023-03-14T18:35:48;22.85;;;16.75;;
40907;SDS011;51055;59.436;24.778;2023-03-14T18:38:20;30.73;;;17.63;;
40907;SDS011;51055;59.436;24.778;2023-03-14T18:40:48;24.00;;;16.83;;
40907;SDS011;51055;59.436;24.778;2023-03-14T18:43:16;21.03;;;13.53;;
40907;SDS011;51055;59.436;24.778;2023-03-14T18:45:44;24.10;;;18.45;;
40907;SDS011;51055;59.436;24.778;2023-03-14T18:48:12;26.48;;;18.70;;
40907;SDS011;51055;59.436;24.778;2023-03-14T18:50:42;27.33;;;17.98;;
40907;SDS011;51055;59.436;24.778;2023-03-14T18:53:09;27.20;;;18.15;;
40907;SDS011;51055;59.436;24.778;2023-03-14T18:55:37;29.80;;;17.77;;
40907;SDS011;51055;59.436;24.778;2023-03-14T18:58:05;25.77;;;17.27;;
40907;SDS011;51055;59.436;24.778;2023-03-14T19:00:34;26.73;;;16.80;;
40907;SDS011;51055;59.436;24.778;2023-03-14T19:03:03;23.65;;;17.35;;
40907;SDS011;51055;59.436;24.778;2023-03-14T19:05:32;18.35;;;12.43;;
40907;SDS011;51055;59.436;24.778;2023-03-14T19:08:00;19.73;;;13.30;;
40907;SDS011;51055;59.436;24.778;2023-03-14T19:10:29;24.73;;;15.57;;
40907;SDS011;51055;59.436;24.778;2023-03-14T19:12:59;20.23;;;14.55;;
40907;SDS011;51055;59.436;24.778;2023-03-14T19:15:27;20.77;;;15.10;;
40907;SDS011;51055;59.436;24.778;2023-03-14T19:17:56;21.07;;;15.60;;
40907;SDS011;51055;59.436;24.778;2023-03-14T19:20:24;22.67;;;15.48;;
40907;SDS011;51055;59.436;24.778;2023-03-14T19:22:52;18.95;;;13.20;;
40907;SDS011;51055;59.436;24.778;2023-03-14T19:25:24;19.25;;;13.43;;
40907;SDS011;51055;59.436;24.778;2023-03-14T19:27:53;18.98;;;12.57;;
40907;SDS011;51055;59.436;24.778;2023-03-14T19:30:21;15.23;;;10.27;;
40907;SDS011;51055;59.436;24.778;2023-03-14T19:32:50;20.95;;;13.07;;
40907;SDS011;51055;59.436;24.778;2023-03-14T19:35:19;20.55;;;13.70;;
40907;SDS011;51055;59.436;24.778;2023-03-14T19:37:47;18.23;;;12.88;;
40907;SDS011;51055;59.436;24.778;2023-03-14T19:40:15;20.98;;;14.07;;
40907;SDS011;51055;59.436;24.778;2023-03-14T19:42:46;22.80;;;14.93;;
40907;SDS011;51055;59.436;24.778;2023-03-14T19:45:13;29.45;;;19.40;;
40907;SDS011;51055;59.436;24.778;2023-03-14T19:47:41;28.73;;;18.95;;
40907;SDS011;51055;59.436;24.778;2023-03-14T19:50:12;23.35;;;15.57;;
40907;SDS011;51055;59.436;24.778;2023-03-14T19:52:40;22.73;;;15.35;;
40907;SDS011;51055;59.436;24.778;2023-03-14T19:55:12;22.38;;;15.93;;
40907;SDS011;51055;59.436;24.778;2023-03-14T19:57:40;21.52;;;15.05;;
40907;SDS011;51055;59.436;24.778;2023-03-14T20:00:11;24.30;;;16.45;;
40907;SDS011;51055;59.436;24.778;2023-03-14T20:02:46;25.20;;;16.23;;
40907;SDS011;51055;59.436;24.778;2023-03-14T20:05:19;25.58;;;16.85;;
40907;SDS011;51055;59.436;24.778;2023-03-14T20:07:48;25.25;;;17.88;;
40907;SDS011;51055;59.436;24.778;2023-03-14T20:10:19;24.60;;;17.10;;
40907;SDS011;51055;59.436;24.778;2023-03-14T20:12:51;23.92;;;17.02;;
40907;SDS011;51055;59.436;24.778;2023-03-14T20:15:20;27.38;;;17.70;;
40907;SDS011;51055;59.436;24.778;2023-03-14T20:17:49;26.02;;;17.52;;
40907;SDS011;51055;59.436;24.778;2023-03-14T20:20:21;24.67;;;16.88;;
40907;SDS011;51055;59.436;24.778;2023-03-14T20:22:49;25.00;;;17.63;;
40907;SDS011;51055;59.436;24.778;2023-03-14T20:25:17;20.13;;;13.40;;
40907;SDS011;51055;59.436;24.778;2023-03-14T20:27:45;27.02;;;17.23;;
40907;SDS011;51055;59.436;24.778;2023-03-14T20:30:17;24.90;;;16.85;;
40907;SDS011;51055;59.436;24.778;2023-03-14T20:32:49;25.45;;;17.30;;
40907;SDS011;51055;59.436;24.778;2023-03-14T20:35:17;19.60;;;13.07;;
40907;SDS011;51055;59.436;24.778;2023-03-14T20:37:50;25.95;;;17.83;;
40907;SDS011;51055;59.436;24.778;2023-03-14T20:40:20;25.90;;;17.90;;
40907;SDS011;51055;59.436;24.778;2023-03-14T20:42:50;25.17;;;18.05;;
40907;SDS011;51055;59.436;24.778;2023-03-14T20:45:19;29.10;;;18.53;;
40907;SDS011;51055;59.436;24.778;2023-03-14T20:47:47;25.17;;;17.05;;
40907;SDS011;51055;59.436;24.778;2023-03-14T20:50:15;29.65;;;17.95;;
40907;SDS011;51055;59.436;24.778;2023-03-14T20:52:44;21.92;;;14.20;;
40907;SDS011;51055;59.436;24.778;2023-03-14T20:55:12;25.92;;;17.27;;
40907;SDS011;51055;59.436;24.778;2023-03-14T20:57:40;29.55;;;19.83;;
40907;SDS011;51055;59.436;24.778;2023-03-14T21:00:10;30.52;;;19.92;;
40907;SDS011;51055;59.436;24.778;2023-03-14T21:02:44;32.53;;;21.60;;
40907;SDS011;51055;59.436;24.778;2023-03-14T21:05:29;29.48;;;20.00;;
40907;SDS011;51055;59.436;24.778;2023-03-14T21:07:57;30.80;;;20.48;;
40907;SDS011;51055;59.436;24.778;2023-03-14T21:10:25;24.25;;;16.25;;
40907;SDS011;51055;59.436;24.778;2023-03-14T21:12:53;31.35;;;19.85;;
40907;SDS011;51055;59.436;24.778;2023-03-14T21:15:21;31.30;;;20.23;;
40907;SDS011;51055;59.436;24.778;2023-03-14T21:17:49;29.77;;;19.77;;
40907;SDS011;51055;59.436;24.778;2023-03-14T21:20:21;29.48;;;20.15;;
40907;SDS011;51055;59.436;24.778;2023-03-14T21:22:52;32.75;;;20.83;;
40907;SDS011;51055;59.436;24.778;2023-03-14T21:25:20;27.25;;;17.00;;
40907;SDS011;51055;59.436;24.778;2023-03-14T21:27:48;32.03;;;21.58;;
40907;SDS011;51055;59.436;24.778;2023-03-14T21:30:17;31.20;;;20.38;;
40907;SDS011;51055;59.436;24.778;2023-03-14T21:32:45;31.70;;;21.33;;
40907;SDS011;51055;59.436;24.778;2023-03-14T21:35:12;32.22;;;21.48;;
40907;SDS011;51055;59.436;24.778;2023-03-14T21:37:40;31.92;;;20.70;;
40907;SDS011;51055;59.436;24.778;2023-03-14T21:40:09;24.63;;;15.63;;
40907;SDS011;51055;59.436;24.778;2023-03-14T21:42:39;30.02;;;21.15;;
40907;SDS011;51055;59.436;24.778;2023-03-14T21:45:07;26.08;;;16.92;;
40907;SDS011;51055;59.436;24.778;2023-03-14T21:47:36;31.00;;;20.30;;
40907;SDS011;51055;59.436;24.778;2023-03-14T21:50:07;30.13;;;21.35;;
40907;SDS011;51055;59.436;24.778;2023-03-14T21:52:38;31.90;;;20.90;;
40907;SDS011;51055;59.436;24.778;2023-03-14T21:55:06;30.58;;;21.33;;
40907;SDS011;51055;59.436;24.778;2023-03-14T22:00:03;31.77;;;21.23;;
40907;SDS011;51055;59.436;24.778;2023-03-14T22:02:33;31.20;;;21.65;;
40907;SDS011;51055;59.436;24.778;2023-03-14T22:05:01;33.85;;;22.70;;
40907;SDS011;51055;59.436;24.778;2023-03-14T22:07:29;22.00;;;15.87;;
40907;SDS011;51055;59.436;24.778;2023-03-14T22:09:57;32.28;;;22.45;;
40907;SDS011;51055;59.436;24.778;2023-03-14T22:12:24;29.60;;;21.27;;
40907;SDS011;51055;59.436;24.778;2023-03-14T22:14:52;32.47;;;22.00;;
40907;SDS011;51055;59.436;24.778;2023-03-14T22:17:20;31.90;;;21.73;;
40907;SDS011;51055;59.436;24.778;2023-03-14T22:19:49;31.48;;;21.67;;
40907;SDS011;51055;59.436;24.778;2023-03-14T22:22:17;30.05;;;21.15;;
40907;SDS011;51055;59.436;24.778;2023-03-14T22:24:46;24.02;;;16.00;;
40907;SDS011;51055;59.436;24.778;2023-03-14T22:27:13;31.42;;;21.15;;
40907;SDS011;51055;59.436;24.778;2023-03-14T22:29:41;30.02;;;20.88;;
40907;SDS011;51055;59.436;24.778;2023-03-14T22:32:10;29.45;;;20.60;;
40907;SDS011;51055;59.436;24.778;2023-03-14T22:34:37;32.03;;;21.50;;
40907;SDS011;51055;59.436;24.778;2023-03-14T22:37:05;30.88;;;20.80;;
40907;SDS011;51055;59.436;24.778;2023-03-14T22:42:02;31.00;;;21.30;;
40907;SDS011;51055;59.436;24.778;2023-03-14T22:44:30;24.27;;;16.03;;
40907;SDS011;51055;59.436;24.778;2023-03-14T22:46:59;28.65;;;20.50;;
40907;SDS011;51055;59.436;24.778;2023-03-14T22:49:31;30.27;;;19.52;;
40907;SDS011;51055;59.436;24.778;2023-03-14T22:51:59;31.30;;;20.08;;
40907;SDS011;51055;59.436;24.778;2023-03-14T22:54:27;30.33;;;20.67;;
40907;SDS011;51055;59.436;24.778;2023-03-14T22:56:54;29.23;;;19.65;;
40907;SDS011;51055;59.436;24.778;2023-03-14T22:59:22;31.55;;;19.73;;
40907;SDS011;51055;59.436;24.778;2023-03-14T23:01:50;27.08;;;19.10;;
40907;SDS011;51055;59.436;24.778;2023-03-14T23:04:17;28.42;;;19.20;;
40907;SDS011;51055;59.436;24.778;2023-03-14T23:06:45;26.27;;;19.15;;
40907;SDS011;51055;59.436;24.778;2023-03-14T23:09:13;25.50;;;18.27;;
40907;SDS011;51055;59.436;24.778;2023-03-14T23:11:41;23.45;;;17.52;;
40907;SDS011;51055;59.436;24.778;2023-03-14T23:14:08;26.88;;;17.00;;
40907;SDS011;51055;59.436;24.778;2023-03-14T23:16:36;22.75;;;17.27;;
40907;SDS011;51055;59.436;24.778;2023-03-14T23:19:07;28.90;;;17.60;;
40907;SDS011;51055;59.436;24.778;2023-03-14T23:21:36;27.05;;;17.38;;
40907;SDS011;51055;59.436;24.778;2023-03-14T23:24:05;17.63;;;11.77;;
40907;SDS011;51055;59.436;24.778;2023-03-14T23:26:33;23.13;;;16.08;;
40907;SDS011;51055;59.436;24.778;2023-03-14T23:31:33;20.92;;;14.23;;
40907;SDS011;51055;59.436;24.778;2023-03-14T23:34:01;19.52;;;14.02;;
40907;SDS011;51055;59.436;24.778;2023-03-14T23:36:29;21.23;;;12.90;;
40907;SDS011;51055;59.436;24.778;2023-03-14T23:38:57;22.60;;;12.90;;
40907;SDS011;51055;59.436;24.778;2023-03-14T23:41:25;18.77;;;12.80;;
40907;SDS011;51055;59.436;24.778;2023-03-14T23:43:53;19.08;;;12.80;;
40907;SDS011;51055;59.436;24.778;2023-03-14T23:46:21;19.65;;;12.57;;
40907;SDS011;51055;59.436;24.778;2023-03-14T23:48:49;18.55;;;11.48;;
40907;SDS011;51055;59.436;24.778;2023-03-14T23:51:17;19.30;;;11.50;;
40907;SDS011;51055;59.436;24.778;2023-03-14T23:53:45;16.20;;;11.07;;
40907;SDS011;51055;59.436;24.778;2023-03-14T23:56:14;16.35;;;11.27;;
40907;SDS011;51055;59.436;24.778;2023-03-14T23:58:42;16.45;;;10.95;;
